Time;durP1;ratioP1;P1;durP2;ratioP2;P2;SDS_P1;SDS_P2;PMS_P1;PMS_P2;Temp;Humidity;BMP_temperature;BMP_pressure;BME280_temperature;BME280_humidity;BME280_pressure;Samples;Min_cycle;Max_cycle;Signal;HPM_P1;HPM_P2
2022/01/07 00:03:58;;;;;;;;;;;;;;;20.67;30.54;95899.28;10222213;28;1847;-47
2022/01/07 00:08:59;;;;;;;;;;;;;;;20.65;30.56;95904.03;10224889;28;1936;-49
2022/01/07 00:13:59;;;;;;;;;;;;;;;20.64;30.55;95905.06;10224578;28;1910;-51
2022/01/07 00:19:00;;;;;;;;;;;;;;;20.62;30.59;95902.72;10222758;28;1873;-50
2022/01/07 00:24:00;;;;;;;;;;;;;;;20.65;30.67;95904.03;10242041;28;1828;-52
2022/01/07 00:29:00;;;;;;;;;;;;;;;20.64;30.46;95902.44;10239982;28;1830;-49
2022/01/07 00:34:01;;;;;;;;;;;;;;;20.64;30.43;95918.22;10238507;28;1962;-48
2022/01/07 00:39:02;;;;;;;;;;;;;;;20.62;30.29;95926.41;10242138;28;1809;-48
2022/01/07 00:44:03;;;;;;;;;;;;;;;20.61;30.24;95909.00;10239062;28;1855;-50
2022/01/07 00:49:04;;;;;;;;;;;;;;;20.63;30.32;95906.13;10284442;22;1866;-62
2022/01/07 00:54:04;;;;;;;;;;;;;;;20.62;30.15;95892.16;10387345;28;1910;-63
2022/01/07 00:59:04;;;;;;;;;;;;;;;20.62;30.11;95879.00;10411395;28;1937;-63
2022/01/07 01:04:05;;;;;;;;;;;;;;;20.62;30.10;95868.47;10389739;28;1874;-62
2022/01/07 01:09:05;;;;;;;;;;;;;;;20.60;30.29;95865.31;10389112;28;1693;-62
2022/01/07 01:14:05;;;;;;;;;;;;;;;20.61;30.22;95852.94;10390076;28;1985;-61
2022/01/07 01:19:06;;;;;;;;;;;;;;;20.61;30.25;95861.59;10384859;28;1830;-62
2022/01/07 01:24:06;;;;;;;;;;;;;;;20.62;30.20;95863.19;10394454;28;1822;-62
2022/01/07 01:29:07;;;;;;;;;;;;;;;20.60;30.26;95860.06;10400150;28;1786;-62
2022/01/07 01:34:07;;;;;;;;;;;;;;;20.62;30.10;95849.22;10399003;28;1983;-62
2022/01/07 01:39:08;;;;;;;;;;;;;;;20.62;29.82;95836.84;10402707;28;1807;-62
2022/01/07 01:44:09;;;;;;;;;;;;;;;20.60;29.98;95840.81;10398834;28;1870;-63
2022/01/07 01:49:09;;;;;;;;;;;;;;;20.62;30.02;95836.84;10396712;28;1841;-62
2022/01/07 01:54:10;;;;;;;;;;;;;;;20.59;29.94;95837.38;10397392;28;1914;-61
2022/01/07 01:59:10;;;;;;;;;;;;;;;20.60;29.65;95833.72;10403759;28;1867;-62
2022/01/07 02:04:11;;;;;;;;;;;;;;;20.59;30.05;95826.84;10399866;28;1839;-62
2022/01/07 02:09:11;;;;;;;;;;;;;;;20.58;29.69;95825.28;10400441;28;2059;-62
2022/01/07 02:14:12;;;;;;;;;;;;;;;20.57;30.15;95823.72;10398384;28;1965;-62
2022/01/07 02:19:13;;;;;;;;;;;;;;;20.56;29.99;95805.56;10394742;28;2278;-62
2022/01/07 02:24:13;;;;;;;;;;;;;;;20.59;29.86;95821.59;10399839;28;2246;-62
2022/01/07 02:29:14;;;;;;;;;;;;;;;20.58;29.84;95825.28;10396442;28;2207;-62
2022/01/07 02:34:14;;;;;;;;;;;;;;;20.58;29.70;95822.66;10398397;28;2314;-62
2022/01/07 02:39:15;;;;;;;;;;;;;;;20.56;29.97;95810.81;10396919;28;2310;-62
2022/01/07 02:44:15;;;;;;;;;;;;;;;20.57;29.57;95807.09;10399510;28;2193;-62
2022/01/07 02:49:16;;;;;;;;;;;;;;;20.55;30.00;95812.66;10394271;28;2302;-62
2022/01/07 02:54:17;;;;;;;;;;;;;;;20.56;29.47;95808.19;10398833;28;2346;-62
2022/01/07 02:59:17;;;;;;;;;;;;;;;20.56;29.76;95797.66;10397650;28;2146;-62
2022/01/07 03:04:18;;;;;;;;;;;;;;;20.54;29.81;95792.66;10397209;28;1987;-62
2022/01/07 03:09:18;;;;;;;;;;;;;;;20.54;29.35;95797.94;10393925;28;2665;-62
2022/01/07 03:14:18;;;;;;;;;;;;;;;20.54;29.68;95790.03;10395780;28;2246;-62
2022/01/07 03:19:19;;;;;;;;;;;;;;;20.53;29.79;95780.53;10393438;28;1859;-62
2022/01/07 03:24:19;;;;;;;;;;;;;;;20.56;29.60;95784.47;10395936;28;1949;-63
2022/01/07 03:29:20;;;;;;;;;;;;;;;20.54;29.58;95787.41;10391636;28;1932;-62
2022/01/07 03:34:20;;;;;;;;;;;;;;;20.56;29.28;95781.84;10396960;28;1973;-62
2022/01/07 03:39:20;;;;;;;;;;;;;;;20.54;29.34;95776.88;10399118;28;1957;-62
2022/01/07 03:44:21;;;;;;;;;;;;;;;20.53;29.53;95769.22;10397582;28;2012;-61
2022/01/07 03:49:21;;;;;;;;;;;;;;;20.53;29.47;95754.22;10394142;28;2034;-62
2022/01/07 03:54:22;;;;;;;;;;;;;;;20.54;29.34;95770.81;10401590;28;2034;-62
2022/01/07 03:59:22;;;;;;;;;;;;;;;20.53;29.39;95766.59;10393910;28;1926;-62
2022/01/07 04:04:23;;;;;;;;;;;;;;;20.54;29.30;95765.53;10394688;28;2002;-62
2022/01/07 04:09:23;;;;;;;;;;;;;;;20.53;29.22;95775.28;10394600;28;1973;-62
2022/01/07 04:14:24;;;;;;;;;;;;;;;20.54;29.14;95774.22;10396483;28;2079;-62
2022/01/07 04:19:25;;;;;;;;;;;;;;;20.54;29.36;95781.34;10390438;28;2054;-62
2022/01/07 04:24:25;;;;;;;;;;;;;;;20.50;28.60;95786.38;10394101;28;2203;-62
2022/01/07 04:29:26;;;;;;;;;;;;;;;20.51;29.08;95777.41;10409812;28;2131;-62
2022/01/07 04:34:26;;;;;;;;;;;;;;;20.51;29.17;95772.13;10394370;28;1996;-62
2022/01/07 04:39:27;;;;;;;;;;;;;;;20.52;29.16;95770.28;10394475;28;2550;-61
2022/01/07 04:44:27;;;;;;;;;;;;;;;20.52;29.26;95767.66;10393876;28;1988;-62
2022/01/07 04:49:27;;;;;;;;;;;;;;;20.51;29.41;95777.41;10410066;28;1880;-62
2022/01/07 04:54:28;;;;;;;;;;;;;;;20.50;29.05;95780.31;10396905;28;1963;-62
2022/01/07 04:59:28;;;;;;;;;;;;;;;20.51;29.20;95782.66;10391820;28;1935;-62
2022/01/07 05:04:28;;;;;;;;;;;;;;;20.50;29.41;95781.09;10387592;28;1962;-62
2022/01/07 05:09:29;;;;;;;;;;;;;;;20.51;29.35;95780.03;10393242;28;2280;-61
2022/01/07 05:14:29;;;;;;;;;;;;;;;20.46;29.22;95782.69;10392920;28;1969;-61
2022/01/07 05:19:30;;;;;;;;;;;;;;;20.49;29.23;95791.88;10390798;28;2010;-62
2022/01/07 05:24:30;;;;;;;;;;;;;;;20.48;29.10;95777.16;10393183;28;1882;-62
2022/01/07 05:29:34;;;;;;;;;;;;;;;20.49;29.12;95776.88;10389738;28;1926;-62
2022/01/07 05:34:35;;;;;;;;;;;;;;;20.49;28.66;95778.72;10397443;28;1909;-62
2022/01/07 05:39:35;;;;;;;;;;;;;;;20.47;29.20;95781.63;10383105;28;1964;-62
2022/01/07 05:44:36;;;;;;;;;;;;;;;20.48;28.97;95782.44;10385262;28;1939;-61
2022/01/07 05:49:36;;;;;;;;;;;;;;;20.45;28.68;95791.66;10384700;28;2339;-61
2022/01/07 05:54:37;;;;;;;;;;;;;;;20.47;28.75;95784.25;10391439;28;2053;-62
2022/01/07 05:59:37;;;;;;;;;;;;;;;20.47;28.65;95784.25;10387618;28;2331;-62
2022/01/07 06:04:38;;;;;;;;;;;;;;;20.45;28.74;95781.13;10382086;28;1907;-62
2022/01/07 06:09:38;;;;;;;;;;;;;;;20.47;28.82;95784.25;10389984;28;1999;-62
2022/01/07 06:14:38;;;;;;;;;;;;;;;20.46;28.95;95784.53;10388409;28;2086;-62
2022/01/07 06:19:39;;;;;;;;;;;;;;;20.48;28.83;95787.69;10392074;28;1957;-62
2022/01/07 06:24:39;;;;;;;;;;;;;;;20.45;28.80;95778.47;10384162;28;1940;-62
2022/01/07 06:29:39;;;;;;;;;;;;;;;20.44;28.60;95774.28;10388371;28;1979;-62
2022/01/07 06:34:40;;;;;;;;;;;;;;;20.43;28.81;95780.59;10394511;28;1977;-62
2022/01/07 06:39:40;;;;;;;;;;;;;;;20.43;28.63;95775.34;10396688;28;2040;-60
2022/01/07 06:44:41;;;;;;;;;;;;;;;20.43;28.69;95774.53;10390941;28;2019;-62
2022/01/07 06:49:41;;;;;;;;;;;;;;;20.40;28.57;95786.44;10396286;28;1941;-63
2022/01/07 06:54:42;;;;;;;;;;;;;;;20.41;28.38;95781.91;10395445;28;2055;-62
2022/01/07 06:59:44;;;;;;;;;;;;;;;20.44;28.66;95776.91;10380961;28;1910;-62
2022/01/07 07:04:46;;;;;;;;;;;;;;;20.43;28.79;95779.81;10393783;22;2220;-49
2022/01/07 07:09:47;;;;;;;;;;;;;;;20.43;28.45;95782.44;10347269;28;1975;-47
2022/01/07 07:14:47;;;;;;;;;;;;;;;20.46;29.17;95779.28;10345092;28;1992;-46
2022/01/07 07:19:48;;;;;;;;;;;;;;;20.45;28.92;95778.47;10344179;28;1970;-46
2022/01/07 07:24:48;;;;;;;;;;;;;;;20.46;29.11;95780.06;10347959;28;2002;-45
2022/01/07 07:29:49;;;;;;;;;;;;;;;20.46;28.82;95785.34;10351263;28;2011;-49
2022/01/07 07:40:16;;;;;;;;;;;;;;;20.40;28.60;95791.69;10327393;28;2032;-50
2022/01/07 07:45:17;;;;;;;;;;;;;;;20.43;29.00;95791.13;10350185;28;1978;-46
2022/01/07 07:50:17;;;;;;;;;;;;;;;20.48;29.12;95783.22;10351483;28;1872;-50
2022/01/07 07:55:18;;;;;;;;;;;;;;;20.50;29.22;95785.56;10356318;28;2027;-49
2022/01/07 08:00:18;;;;;;;;;;;;;;;20.52;29.47;95794.00;10354580;28;2011;-48
2022/01/07 08:05:19;;;;;;;;;;;;;;;20.52;29.74;95789.50;10348229;28;2029;-49
2022/01/07 08:10:23;;;;;;;;;;;;;;;20.54;29.61;95803.19;10348269;28;2114;-48
2022/01/07 08:20:43;;;;;;;;;;;;;;;20.47;28.43;95786.09;10348133;28;2032;-48
2022/01/07 08:25:43;;;;;;;;;;;;;;;20.51;29.48;95787.94;10345323;28;2430;-49
2022/01/07 08:31:26;;;;;;;;;;;;;;;20.45;28.43;95780.31;10350299;28;1942;-48
2022/01/07 08:36:10;;;;;;;;;;;;;;;20.45;28.53;95772.41;10343853;28;1950;-49
2022/01/07 08:41:11;;;;;;;;;;;;;;;20.51;28.98;95784.50;10349617;28;1382;-53
2022/01/07 08:46:11;;;;;;;;;;;;;;;20.48;28.61;95780.59;10351681;28;1955;-48
2022/01/07 08:51:11;;;;;;;;;;;;;;;20.44;28.05;95782.19;10353096;28;2006;-46
2022/01/07 08:56:12;;;;;;;;;;;;;;;20.46;28.76;95785.34;10352537;28;2005;-47
2022/01/07 09:01:12;;;;;;;;;;;;;;;20.48;28.43;95777.16;10347933;28;1927;-49
2022/01/07 09:06:13;;;;;;;;;;;;;;;20.48;27.68;95777.94;10353775;28;1986;-46
2022/01/07 09:11:13;;;;;;;;;;;;;;;20.53;28.94;95774.47;10346634;28;1962;-47
2022/01/07 09:16:14;;;;;;;;;;;;;;;20.52;28.36;95780.81;10346842;28;1990;-47
2022/01/07 09:21:14;;;;;;;;;;;;;;;20.53;28.79;95775.28;10357072;28;2015;-46
2022/01/07 09:26:15;;;;;;;;;;;;;;;20.55;29.18;95780.25;10346456;28;1959;-47
2022/01/07 09:31:17;;;;;;;;;;;;;;;20.57;28.75;95771.03;10347857;28;2015;-51
2022/01/07 09:36:17;;;;;;;;;;;;;;;20.59;28.92;95757.59;10350474;28;1993;-49
2022/01/07 09:41:18;;;;;;;;;;;;;;;20.57;28.83;95760.50;10344959;28;1947;-53
2022/01/07 09:46:18;;;;;;;;;;;;;;;20.57;28.61;95742.06;10349243;28;1963;-50
2022/01/07 09:51:19;;;;;;;;;;;;;;;20.63;29.02;95746.25;10354071;28;1934;-51
2022/01/07 09:56:19;;;;;;;;;;;;;;;20.64;29.20;95747.03;10353644;28;1962;-48
2022/01/07 10:01:21;;;;;;;;;;;;;;;20.63;28.87;95738.34;10349413;28;1866;-51
2022/01/07 10:06:27;;;;;;;;;;;;;;;20.66;29.07;95743.06;10354793;28;1974;-46
2022/01/07 10:11:28;;;;;;;;;;;;;;;20.66;29.09;95740.44;10355814;28;2031;-48
2022/01/07 10:16:28;;;;;;;;;;;;;;;20.65;29.01;95736.22;10353093;28;1919;-50
2022/01/07 10:21:29;;;;;;;;;;;;;;;20.65;28.65;95730.19;10354947;28;1940;-48
2022/01/07 10:26:29;;;;;;;;;;;;;;;20.64;29.02;95718.84;10350864;28;1987;-51
2022/01/07 10:31:30;;;;;;;;;;;;;;;20.64;28.90;95715.44;10340293;28;2025;-50
2022/01/07 10:36:31;;;;;;;;;;;;;;;20.63;28.62;95709.38;10357497;28;2008;-47
2022/01/07 10:41:31;;;;;;;;;;;;;;;20.62;28.86;95705.19;10354298;28;1943;-51
2022/01/07 10:46:32;;;;;;;;;;;;;;;20.63;28.78;95704.09;10356868;28;1955;-49
2022/01/07 10:51:33;;;;;;;;;;;;;;;20.65;28.74;95685.41;10357307;28;1923;-50
2022/01/07 10:56:40;;;;;;;;;;;;;;;20.68;28.70;95677.75;10353380;28;1982;-51
2022/01/07 11:01:42;;;;;;;;;;;;;;;20.68;28.90;95667.19;10354288;28;1998;-52
2022/01/07 11:06:43;;;;;;;;;;;;;;;20.68;28.86;95659.31;10355706;28;1912;-49
2022/01/07 11:11:45;;;;;;;;;;;;;;;20.71;28.72;95650.84;10352470;28;1991;-52
2022/01/07 11:16:45;;;;;;;;;;;;;;;20.73;28.75;95650.56;10353271;28;2042;-53
2022/01/07 11:21:47;;;;;;;;;;;;;;;20.72;28.67;95647.16;10352148;28;2022;-52
2022/01/07 11:27:08;;;;;;;;;;;;;;;20.72;28.57;95641.88;10340885;28;2032;-46
2022/01/07 11:32:27;;;;;;;;;;;;;;;20.72;28.63;95639.25;10351561;28;2011;-48
2022/01/07 11:37:37;;;;;;;;;;;;;;;20.72;28.63;95631.34;10353031;28;2343;-49
2022/01/07 11:42:42;;;;;;;;;;;;;;;20.71;28.92;95632.38;10350653;28;1925;-49
2022/01/07 11:47:49;;;;;;;;;;;;;;;20.72;29.03;95636.59;10350325;28;1925;-51
2022/01/07 11:52:57;;;;;;;;;;;;;;;20.71;28.72;95634.25;10359545;28;1910;-47
2022/01/07 11:58:15;;;;;;;;;;;;;;;20.71;28.73;95635.03;10350950;28;1980;-50
2022/01/07 12:03:32;;;;;;;;;;;;;;;20.69;29.02;95626.63;10350730;28;1939;-47
2022/01/07 12:08:41;;;;;;;;;;;;;;;20.72;29.05;95623.44;10348431;28;2183;-48
2022/01/07 12:13:41;;;;;;;;;;;;;;;20.75;29.00;95622.88;10348147;28;1980;-53
2022/01/07 12:18:42;;;;;;;;;;;;;;;20.73;29.13;95614.47;10347485;28;1894;-52
2022/01/07 12:23:42;;;;;;;;;;;;;;;20.72;29.11;95618.16;10348074;28;1970;-48
2022/01/07 12:28:45;;;;;;;;;;;;;;;20.71;28.90;95616.59;10352264;28;2065;-52
2022/01/07 12:33:52;;;;;;;;;;;;;;;20.72;28.92;95615.53;10348316;28;1959;-51
2022/01/07 12:39:01;;;;;;;;;;;;;;;20.71;28.83;95608.69;10351854;28;1900;-51
2022/01/07 12:44:05;;;;;;;;;;;;;;;20.72;28.80;95597.09;10351382;28;2010;-50
2022/01/07 12:49:09;;;;;;;;;;;;;;;20.71;28.73;95587.63;10348469;28;1917;-49
2022/01/07 12:54:11;;;;;;;;;;;;;;;20.73;28.60;95587.34;10348703;28;1977;-46
2022/01/07 12:59:14;;;;;;;;;;;;;;;20.70;28.62;95569.47;10347670;28;2045;-46
2022/01/07 13:04:15;;;;;;;;;;;;;;;20.68;28.62;95567.13;10351763;28;1900;-50
2022/01/07 13:09:22;;;;;;;;;;;;;;;20.66;28.86;95558.72;10342938;28;1906;-51
2022/01/07 13:14:23;;;;;;;;;;;;;;;20.68;28.52;95559.22;10349178;28;2001;-51
2022/01/07 13:19:24;;;;;;;;;;;;;;;20.67;28.53;95548.97;10341691;28;2020;-51
2022/01/07 13:24:25;;;;;;;;;;;;;;;20.69;28.58;95538.94;10345538;28;2001;-48
2022/01/07 13:29:26;;;;;;;;;;;;;;;20.67;28.72;95528.66;10347122;28;2319;-52
2022/01/07 13:34:27;;;;;;;;;;;;;;;20.70;28.86;95533.38;10350321;28;1945;-46
2022/01/07 13:39:35;;;;;;;;;;;;;;;20.70;28.61;95528.09;10351684;28;1923;-51
2022/01/07 13:44:47;;;;;;;;;;;;;;;20.70;28.81;95519.41;10350188;28;1915;-46
2022/01/07 13:49:48;;;;;;;;;;;;;;;20.68;28.72;95518.91;10355991;28;1978;-51
2022/01/07 13:54:48;;;;;;;;;;;;;;;20.69;28.86;95516.00;10355070;28;1982;-51
2022/01/07 13:59:50;;;;;;;;;;;;;;;20.68;28.86;95508.38;10352084;28;1922;-52
2022/01/07 14:04:51;;;;;;;;;;;;;;;20.67;28.74;95502.31;10352135;28;1920;-45
2022/01/07 14:10:02;;;;;;;;;;;;;;;20.66;28.72;95499.97;10348554;28;2024;-52
2022/01/07 14:15:11;;;;;;;;;;;;;;;20.68;28.83;95493.38;10355148;28;1958;-48
2022/01/07 14:20:12;;;;;;;;;;;;;;;20.68;30.28;95487.31;10356629;28;2027;-51
2022/01/07 14:25:14;;;;;;;;;;;;;;;20.73;30.67;95488.03;10349932;28;1903;-51
2022/01/07 14:30:16;;;;;;;;;;;;;;;20.72;31.29;95478.56;10353909;28;1853;-50
2022/01/07 14:35:16;;;;;;;;;;;;;;;20.74;31.68;95486.19;10349202;28;1973;-50
2022/01/07 14:40:17;;;;;;;;;;;;;;;20.73;31.51;95490.66;10345392;28;1808;-51
2022/01/07 14:45:17;;;;;;;;;;;;;;;20.72;31.74;95486.47;10353887;28;1846;-48
2022/01/07 14:50:18;;;;;;;;;;;;;;;20.72;31.77;95486.47;10350433;28;1812;-47
2022/01/07 14:55:23;;;;;;;;;;;;;;;20.76;31.52;95499.84;10349271;28;1902;-49
2022/01/07 15:00:24;;;;;;;;;;;;;;;20.76;31.87;95495.38;10343244;28;1827;-48
2022/01/07 15:05:24;;;;;;;;;;;;;;;20.74;31.69;95486.97;10342506;28;2005;-47
2022/01/07 15:10:25;;;;;;;;;;;;;;;20.72;31.90;95494.38;10345295;28;1832;-49
2022/01/07 15:20:45;;;;;;;;;;;;;;;20.74;31.53;95497.50;10348359;28;1851;-53
2022/01/07 15:25:45;;;;;;;;;;;;;;;20.74;31.97;95492.25;10349855;28;1742;-46
2022/01/07 15:30:45;;;;;;;;;;;;;;;20.76;31.56;95497.22;10343550;28;1854;-52
2022/01/07 15:35:46;;;;;;;;;;;;;;;20.73;31.75;95503.06;10353136;28;1971;-49
2022/01/07 15:40:46;;;;;;;;;;;;;;;20.72;31.48;95504.13;10348778;28;2198;-48
2022/01/07 15:45:47;;;;;;;;;;;;;;;20.71;31.52;95503.31;10342045;28;1776;-53
2022/01/07 15:50:47;;;;;;;;;;;;;;;20.71;31.28;95503.31;10353178;28;1855;-50
2022/01/07 15:55:47;;;;;;;;;;;;;;;20.69;31.24;95500.19;10349968;28;1914;-49
2022/01/07 16:00:48;;;;;;;;;;;;;;;20.69;31.34;95497.56;10342326;28;1823;-51
2022/01/07 16:05:48;;;;;;;;;;;;;;;20.68;31.12;95498.63;10340821;28;1885;-49
2022/01/07 16:10:49;;;;;;;;;;;;;;;20.67;31.15;95502.31;10344766;28;1796;-51
2022/01/07 16:15:49;;;;;;;;;;;;;;;20.68;30.88;95495.22;10342211;28;1924;-53
2022/01/07 16:20:49;;;;;;;;;;;;;;;20.68;30.98;95490.72;10344526;28;1871;-47
2022/01/07 16:25:50;;;;;;;;;;;;;;;20.69;31.17;95489.66;10342583;28;1824;-52
2022/01/07 16:30:50;;;;;;;;;;;;;;;20.72;31.33;95490.94;10346932;28;2270;-52
2022/01/07 16:35:51;;;;;;;;;;;;;;;20.69;31.04;95484.38;10354796;28;1915;-50
2022/01/07 16:40:51;;;;;;;;;;;;;;;20.71;30.78;95484.88;10346952;28;1859;-47
2022/01/07 16:45:52;;;;;;;;;;;;;;;20.69;30.78;95487.03;10344515;28;1882;-51
2022/01/07 16:50:52;;;;;;;;;;;;;;;20.69;30.57;95489.66;10345861;28;1867;-49
2022/01/07 16:55:53;;;;;;;;;;;;;;;20.69;30.77;95492.28;10347683;28;1910;-47
2022/01/07 17:00:53;;;;;;;;;;;;;;;20.70;30.88;95496.50;10346509;28;1883;-51
2022/01/07 17:05:55;;;;;;;;;;;;;;;20.69;30.64;95492.28;10341705;28;1878;-45
2022/01/07 17:10:55;;;;;;;;;;;;;;;20.70;30.69;95488.59;10349499;28;1808;-50
2022/01/07 17:15:56;;;;;;;;;;;;;;;20.58;29.34;95492.69;10341601;28;1922;-53
2022/01/07 17:20:56;;;;;;;;;;;;;;;20.65;30.55;95493.16;10345989;28;2183;-46
2022/01/07 17:25:57;;;;;;;;;;;;;;;20.65;30.67;95488.66;10344305;28;1855;-52
2022/01/07 17:30:57;;;;;;;;;;;;;;;20.65;30.48;95487.88;10347542;28;1849;-50
2022/01/07 17:35:57;;;;;;;;;;;;;;;20.66;30.54;95479.69;10348413;28;1906;-53
2022/01/07 17:40:58;;;;;;;;;;;;;;;20.67;30.40;95478.63;10344138;28;1864;-51
2022/01/07 17:45:59;;;;;;;;;;;;;;;20.67;30.34;95478.63;10341407;28;1768;-53
2022/01/07 17:50:59;;;;;;;;;;;;;;;20.69;30.26;95492.28;10348225;28;1868;-51
2022/01/07 17:55:59;;;;;;;;;;;;;;;20.66;30.25;95490.22;10342642;28;1981;-50
2022/01/07 18:01:00;;;;;;;;;;;;;;;20.68;30.14;95482.03;10343487;28;1873;-50
2022/01/07 18:06:00;;;;;;;;;;;;;;;20.68;30.15;95480.19;10347004;28;1847;-46
2022/01/07 18:11:01;;;;;;;;;;;;;;;20.70;29.63;95474.63;10353685;28;1828;-46
2022/01/07 18:16:01;;;;;;;;;;;;;;;20.69;29.78;95479.13;10353549;28;1974;-46
2022/01/07 18:21:01;;;;;;;;;;;;;;;20.67;30.11;95483.88;10350511;28;1940;-49
2022/01/07 18:26:02;;;;;;;;;;;;;;;20.66;29.87;95490.22;10348282;28;1880;-46
2022/01/07 18:31:02;;;;;;;;;;;;;;;20.67;30.06;95486.50;10354707;28;1844;-50
2022/01/07 18:36:04;;;;;;;;;;;;;;;20.67;30.05;95485.75;10354133;28;1963;-48
2022/01/07 18:41:04;;;;;;;;;;;;;;;20.67;29.85;95485.75;10355822;28;1845;-49
2022/01/07 18:46:04;;;;;;;;;;;;;;;20.66;29.79;95494.69;10348437;28;1841;-51
2022/01/07 18:51:05;;;;;;;;;;;;;;;20.66;30.02;95484.97;10356369;28;1941;-52
2022/01/07 18:56:05;;;;;;;;;;;;;;;20.66;30.00;95490.22;10355057;28;1927;-51
2022/01/07 19:01:06;;;;;;;;;;;;;;;20.67;29.86;95480.50;10353243;28;1864;-52
2022/01/07 19:06:08;;;;;;;;;;;;;;;20.66;29.64;95482.31;10354072;28;1809;-50
2022/01/07 19:11:09;;;;;;;;;;;;;;;20.67;29.72;95481.25;10352858;28;1820;-50
2022/01/07 19:16:10;;;;;;;;;;;;;;;20.68;29.55;95482.84;10349870;28;1979;-50
2022/01/07 19:21:10;;;;;;;;;;;;;;;20.67;29.78;95497.06;10352562;28;1958;-49
2022/01/07 19:26:11;;;;;;;;;;;;;;;20.68;29.64;95488.09;10355377;28;1931;-53
2022/01/07 19:31:11;;;;;;;;;;;;;;;20.68;29.63;95485.47;10348856;28;1894;-48
2022/01/07 19:36:12;;;;;;;;;;;;;;;20.67;29.65;95472.59;10351155;28;1926;-45
2022/01/07 19:41:12;;;;;;;;;;;;;;;20.68;29.79;95472.28;10346932;28;1839;-47
2022/01/07 19:46:13;;;;;;;;;;;;;;;20.67;29.76;95478.63;10345237;28;1843;-51
2022/01/07 19:51:14;;;;;;;;;;;;;;;20.68;29.37;95472.28;10351018;28;1813;-53
2022/01/07 19:56:14;;;;;;;;;;;;;;;20.69;29.50;95471.22;10350269;28;1914;-52
2022/01/07 20:01:15;;;;;;;;;;;;;;;20.69;29.47;95479.13;10349028;28;1777;-52
2022/01/07 20:06:16;;;;;;;;;;;;;;;20.71;29.46;95471.72;10349549;28;1797;-51
2022/01/07 20:11:16;;;;;;;;;;;;;;;20.70;29.18;95470.16;10345316;28;1906;-50
2022/01/07 20:16:17;;;;;;;;;;;;;;;20.71;29.50;95465.69;10349447;28;1910;-47
2022/01/07 20:21:18;;;;;;;;;;;;;;;20.70;29.49;95475.44;10350505;28;1855;-52
2022/01/07 20:26:18;;;;;;;;;;;;;;;20.70;29.57;95470.16;10349872;28;1864;-52
2022/01/07 20:31:18;;;;;;;;;;;;;;;20.70;29.54;95477.28;10348058;28;1812;-52
2022/01/07 20:36:19;;;;;;;;;;;;;;;20.69;29.36;95483.63;10349039;28;1907;-53
2022/01/07 20:41:19;;;;;;;;;;;;;;;20.71;29.43;95482.25;10349102;28;1828;-48
2022/01/07 20:46:20;;;;;;;;;;;;;;;20.72;29.38;95477.78;10348294;28;1773;-48
2022/01/07 20:51:20;;;;;;;;;;;;;;;20.72;29.32;95473.31;10349049;28;1768;-48
2022/01/07 20:56:21;;;;;;;;;;;;;;;20.73;29.39;95464.31;10350799;28;1906;-50
2022/01/07 21:01:22;;;;;;;;;;;;;;;20.70;29.35;95458.84;10343236;28;1843;-51
2022/01/07 21:06:22;;;;;;;;;;;;;;;20.72;29.27;95456.72;10349379;28;1919;-50
2022/01/07 21:11:22;;;;;;;;;;;;;;;20.67;28.29;95440.97;10346104;28;1800;-48
2022/01/07 21:16:23;;;;;;;;;;;;;;;20.39;27.91;95447.06;10345551;28;1968;-47
2022/01/07 21:21:23;;;;;;;;;;;;;;;20.25;28.01;95444.31;10345406;28;1839;-50
2022/01/07 21:26:24;;;;;;;;;;;;;;;20.35;28.76;95440.78;10347054;28;1859;-50
2022/01/07 21:31:26;;;;;;;;;;;;;;;20.40;27.69;95438.91;10349956;28;1867;-48
2022/01/07 21:36:26;;;;;;;;;;;;;;;20.57;30.30;95441.84;10347592;28;2201;-49
2022/01/07 21:41:26;;;;;;;;;;;;;;;20.64;30.30;95449.44;10352088;28;1858;-53
2022/01/07 21:46:27;;;;;;;;;;;;;;;20.73;30.62;95453.03;10345411;28;1978;-49
2022/01/07 21:51:27;;;;;;;;;;;;;;;20.75;30.81;95450.88;10348703;28;1397;-49
2022/01/07 21:56:28;;;;;;;;;;;;;;;20.74;30.74;95444.84;10348725;28;1977;-50
2022/01/07 22:01:28;;;;;;;;;;;;;;;20.79;30.46;95447.38;10345551;28;1277;-52
2022/01/07 22:06:29;;;;;;;;;;;;;;;20.79;30.67;95444.75;10350270;28;1405;-50
2022/01/07 22:11:29;;;;;;;;;;;;;;;20.80;30.37;95442.91;10373181;23;1822;-57
2022/01/07 22:16:30;;;;;;;;;;;;;;;20.80;30.52;95442.91;10348406;28;1906;-58
2022/01/07 22:21:30;;;;;;;;;;;;;;;20.82;30.30;95446.03;10361036;28;2070;-59
2022/01/07 22:26:31;;;;;;;;;;;;;;;20.87;30.48;95438.09;10362194;28;1675;-59
2022/01/07 22:31:31;;;;;;;;;;;;;;;20.84;30.54;95430.75;10357487;28;1501;-60
2022/01/07 22:36:32;;;;;;;;;;;;;;;20.83;30.47;95432.63;10363457;28;1977;-60
2022/01/07 22:41:33;;;;;;;;;;;;;;;20.83;30.47;95437.09;10365213;28;1401;-60
2022/01/07 22:46:34;;;;;;;;;;;;;;;20.84;30.42;95428.09;10362587;28;1342;-59
2022/01/07 22:51:34;;;;;;;;;;;;;;;20.83;30.14;95429.19;10364673;28;1558;-59
2022/01/07 22:56:34;;;;;;;;;;;;;;;20.83;30.23;95427.34;10357889;28;1973;-59
2022/01/07 23:01:35;;;;;;;;;;;;;;;20.82;30.10;95412.59;10360644;28;1796;-58
2022/01/07 23:06:36;;;;;;;;;;;;;;;20.83;29.87;95414.19;10361861;28;1768;-60
2022/01/07 23:11:37;;;;;;;;;;;;;;;20.80;30.03;95411.31;10359383;28;1851;-61
2022/01/07 23:16:42;;;;;;;;;;;;;;;20.80;30.09;95398.91;10348059;28;1898;-60
2022/01/07 23:21:43;;;;;;;;;;;;;;;20.80;30.16;95409.47;10365074;28;1432;-58
2022/01/07 23:26:43;;;;;;;;;;;;;;;20.82;30.10;95394.16;10358834;28;1898;-59
2022/01/07 23:31:44;;;;;;;;;;;;;;;20.84;30.11;95394.66;10346160;28;1891;-60
2022/01/07 23:36:44;;;;;;;;;;;;;;;20.83;29.99;95390.47;10363422;28;1934;-58
2022/01/07 23:41:45;;;;;;;;;;;;;;;20.79;29.96;95381.53;10361524;28;1898;-59
2022/01/07 23:46:45;;;;;;;;;;;;;;;20.80;30.08;95375.22;10343166;28;1815;-59
2022/01/07 23:51:46;;;;;;;;;;;;;;;20.80;29.80;95361.25;10358274;28;1876;-58
2022/01/07 23:56:46;;;;;;;;;;;;;;;20.79;29.94;95357.81;10359041;28;1973;-59
